createdAt,value
2019-02-07T00:02:43.004Z,80.55
2019-02-07T00:05:12.140Z,53.47
2019-02-07T00:07:43.080Z,96.50
2019-02-07T00:10:28.956Z,175.45
2019-02-07T00:12:58.022Z,131.47
2019-02-07T00:15:44.841Z,199.32
2019-02-07T00:18:38.691Z,184.20
2019-02-07T00:21:07.773Z,62.00
2019-02-07T00:23:58.545Z,81.63
2019-02-07T00:26:53.613Z,70.18
2019-02-07T00:29:38.858Z,69.70
2019-02-07T00:32:12.799Z,162.55
2019-02-07T00:34:54.411Z,196.20
2019-02-07T00:40:09.004Z,75.65
2019-02-07T00:42:57.470Z,154.38
2019-02-07T00:45:30.303Z,103.60
2019-02-07T00:47:59.379Z,210.10
2019-02-07T00:50:33.552Z,174.77
2019-02-07T00:53:02.644Z,82.13
2019-02-07T00:55:34.097Z,182.98
2019-02-07T00:58:05.095Z,200.20
2019-02-07T01:00:39.862Z,71.97
2019-02-07T01:03:08.924Z,96.78
2019-02-07T01:05:38.000Z,84.73
2019-02-07T01:08:08.742Z,161.88
2019-02-07T01:10:42.042Z,193.77
2019-02-07T01:13:11.120Z,90.33
2019-02-07T01:15:41.641Z,117.65
2019-02-07T01:18:10.700Z,204.73
2019-02-07T01:20:43.103Z,67.53
2019-02-07T01:23:14.147Z,131.52
2019-02-07T01:25:44.179Z,151.75
2019-02-07T01:30:59.424Z,98.55
2019-02-07T01:33:29.483Z,71.80
2019-02-07T01:36:02.706Z,107.32
2019-02-07T01:38:54.262Z,81.12
2019-02-07T01:41:25.895Z,66.93
2019-02-07T01:43:54.999Z,174.43
2019-02-07T01:49:08.251Z,172.35
2019-02-07T01:54:23.056Z,102.62
2019-02-07T01:59:43.060Z,136.48
2019-02-07T02:02:13.067Z,62.93
2019-02-07T02:07:27.810Z,101.25
2019-02-07T02:10:04.451Z,95.73
2019-02-07T02:12:33.513Z,147.50
2019-02-07T02:15:03.568Z,195.05
2019-02-07T02:17:40.337Z,199.73
2019-02-07T02:20:17.858Z,82.80
2019-02-07T02:22:55.879Z,169.18
2019-02-07T02:25:24.937Z,312.43
2019-02-07T02:30:32.383Z,222.23
2019-02-07T02:33:01.944Z,108.63
2019-02-07T02:35:31.939Z,286.83
2019-02-07T02:41:01.158Z,222.52
2019-02-07T02:43:30.215Z,79.70
2019-02-07T02:46:09.681Z,153.93
2019-02-07T02:48:51.588Z,172.62
2019-02-07T02:51:25.827Z,194.48
2019-02-07T02:56:33.147Z,131.07
2019-02-07T02:59:04.708Z,102.40
2019-02-07T03:04:16.911Z,170.27
2019-02-07T03:07:09.642Z,117.78
2019-02-07T03:09:49.135Z,57.90
2019-02-07T03:15:04.784Z,113.65
2019-02-07T03:17:39.396Z,55.67
2019-02-07T03:20:09.356Z,125.87
2019-02-07T03:22:42.936Z,104.00
2019-02-07T03:31:00.129Z,121.50
2019-02-07T03:45:26.784Z,132.68
2019-02-07T03:47:59.796Z,48.47
2019-02-07T03:53:18.388Z,79.43
2019-02-07T03:55:47.435Z,45.13
2019-02-07T04:04:16.033Z,69.75
2019-02-07T04:12:10.160Z,113.20
2019-02-07T04:17:34.731Z,67.70
2019-02-07T04:20:06.240Z,56.60
2019-02-07T04:22:52.712Z,83.45
2019-02-07T04:25:41.466Z,40.63
2019-02-07T04:28:12.722Z,77.57
2019-02-07T04:36:54.229Z,107.22
2019-02-07T04:42:14.381Z,65.45
2019-02-07T04:47:50.885Z,67.53
2019-02-07T04:50:21.579Z,44.97
2019-02-07T04:53:00.286Z,40.40
2019-02-07T04:58:05.535Z,39.78
2019-02-07T05:06:55.636Z,37.10
2019-02-07T05:09:30.480Z,29.70
2019-02-07T05:11:59.635Z,30.20
2019-02-07T05:14:43.972Z,36.60
2019-02-07T05:17:15.934Z,27.90
2019-02-07T05:23:03.173Z,36.78
2019-02-07T05:28:13.707Z,71.05
2019-02-07T05:30:55.854Z,53.75
2019-02-07T05:36:03.093Z,46.72
2019-02-07T05:38:34.275Z,33.20
2019-02-07T05:41:19.590Z,37.35
2019-02-07T05:46:38.414Z,45.17
2019-02-07T05:52:03.079Z,65.97
2019-02-07T05:54:39.250Z,47.30
2019-02-07T05:57:24.595Z,160.40
2019-02-07T06:00:14.859Z,149.30
2019-02-07T06:09:16.506Z,133.00
2019-02-07T06:14:31.100Z,71.95
2019-02-07T06:17:03.188Z,48.53
2019-02-07T06:22:29.250Z,72.55
2019-02-07T06:25:19.289Z,51.77
2019-02-07T06:30:32.995Z,58.25
2019-02-07T06:33:13.382Z,72.53
2019-02-07T06:38:36.374Z,156.40
2019-02-07T06:41:09.669Z,70.47
2019-02-07T06:43:43.996Z,55.50
2019-02-07T06:46:19.430Z,41.58
2019-02-07T06:54:23.748Z,31.75
2019-02-07T07:05:40.392Z,29.42
2019-02-07T07:08:12.046Z,28.23
2019-02-07T07:10:44.899Z,34.65
2019-02-07T07:13:17.845Z,58.95
2019-02-07T07:15:57.399Z,44.67
2019-02-07T07:24:44.257Z,40.40
2019-02-07T07:27:14.776Z,36.57
2019-02-07T07:32:44.452Z,32.88
2019-02-07T07:37:57.196Z,36.00
2019-02-07T07:40:34.167Z,31.63
2019-02-07T07:43:10.536Z,31.60
2019-02-07T07:51:30.765Z,26.98
2019-02-07T07:54:05.115Z,24.03
2019-02-07T07:56:40.047Z,27.33
2019-02-07T07:59:12.078Z,26.00
2019-02-07T08:01:45.568Z,28.95
2019-02-07T08:04:16.599Z,31.48
2019-02-07T08:06:51.241Z,29.65
2019-02-07T08:12:02.496Z,26.67
2019-02-07T08:17:16.266Z,22.75
2019-02-07T08:19:50.729Z,24.63
2019-02-07T08:30:56.398Z,26.53
2019-02-07T08:39:06.313Z,25.37
2019-02-07T08:41:47.186Z,26.13
2019-02-07T08:47:01.280Z,24.13
2019-02-07T08:49:34.877Z,24.50
2019-02-07T08:52:05.689Z,24.40
2019-02-07T08:55:02.695Z,22.63
2019-02-07T08:57:36.732Z,20.40
2019-02-07T09:00:09.996Z,21.50
2019-02-07T09:02:51.563Z,22.17
2019-02-07T09:05:19.080Z,20.10
2019-02-07T09:07:52.856Z,22.50
2019-02-07T09:10:31.207Z,23.43
2019-02-07T09:13:05.966Z,20.33
2019-02-07T09:20:59.446Z,23.87
2019-02-07T09:26:35.368Z,23.23
2019-02-07T09:29:08.515Z,25.35
2019-02-07T09:31:41.006Z,20.50
2019-02-07T09:34:15.559Z,23.27
2019-02-07T09:36:56.752Z,21.10
2019-02-07T09:39:31.438Z,21.97
2019-02-07T09:42:03.872Z,20.40
2019-02-07T09:44:46.734Z,21.43
2019-02-07T09:50:15.107Z,25.12
2019-02-07T09:52:45.068Z,24.77
2019-02-07T09:55:15.669Z,25.42
2019-02-07T10:03:34.735Z,24.65
2019-02-07T10:06:08.519Z,23.27
2019-02-07T10:09:03.487Z,20.83
2019-02-07T10:11:51.069Z,22.03
2019-02-07T10:17:21.286Z,28.65
2019-02-07T10:22:30.722Z,29.65
2019-02-07T10:25:04.718Z,31.23
2019-02-07T10:27:38.061Z,34.83
2019-02-07T10:30:08.025Z,23.13
2019-02-07T10:35:22.691Z,25.55
2019-02-07T10:37:44.407Z,22.97
2019-02-07T10:44:48.186Z,29.75
2019-02-07T10:47:30.369Z,30.17
2019-02-07T10:58:21.500Z,32.33
2019-02-07T11:00:56.527Z,32.63
2019-02-07T11:03:31.806Z,26.83
2019-02-07T11:09:03.991Z,30.75
2019-02-07T11:11:33.040Z,30.60
2019-02-07T11:14:13.602Z,26.57
2019-02-07T11:19:31.239Z,30.05
2019-02-07T11:22:05.076Z,25.60
2019-02-07T11:24:35.004Z,23.63
2019-02-07T11:27:12.361Z,20.80
2019-02-07T11:29:43.984Z,26.23
2019-02-07T11:32:16.261Z,23.67
2019-02-07T11:40:08.765Z,30.02
2019-02-07T11:42:38.695Z,25.60
2019-02-07T11:50:43.927Z,26.73
2019-02-07T11:53:33.315Z,28.42
2019-02-07T11:56:13.386Z,25.80
2019-02-07T11:58:49.428Z,25.10
2019-02-07T12:04:17.357Z,25.83
2019-02-07T12:06:50.704Z,28.45
2019-02-07T12:09:21.172Z,26.50
2019-02-07T12:11:52.986Z,26.00
2019-02-07T12:14:27.650Z,28.13
2019-02-07T12:17:13.559Z,29.17
2019-02-07T12:19:48.215Z,24.43
2019-02-07T12:25:14.879Z,25.65
2019-02-07T12:27:50.456Z,25.63
2019-02-07T12:30:21.264Z,25.60
2019-02-07T12:32:52.062Z,23.07
2019-02-07T12:40:58.999Z,32.05
2019-02-07T12:46:22.502Z,27.75
2019-02-07T12:48:57.048Z,26.60
2019-02-07T12:57:53.359Z,29.15
2019-02-07T13:00:28.356Z,29.87
2019-02-07T13:02:58.729Z,30.50
2019-02-07T13:08:33.854Z,28.77
2019-02-07T13:11:07.370Z,30.67
2019-02-07T13:13:52.507Z,28.10
2019-02-07T13:19:02.276Z,31.98
2019-02-07T13:24:15.164Z,35.65
2019-02-07T13:26:44.294Z,35.13
2019-02-07T13:29:19.740Z,32.55
2019-02-07T13:31:54.171Z,35.20
2019-02-07T13:34:33.218Z,32.13
2019-02-07T13:37:17.772Z,28.43
2019-02-07T13:39:57.244Z,31.73
2019-02-07T13:42:37.567Z,29.27
2019-02-07T13:48:08.371Z,37.05
2019-02-07T13:50:44.118Z,34.07
2019-02-07T13:56:06.863Z,34.00
2019-02-07T13:58:40.301Z,32.13
2019-02-07T14:01:25.101Z,28.90
2019-02-07T14:03:55.426Z,35.23
2019-02-07T14:06:27.415Z,31.07
2019-02-07T14:09:03.073Z,30.93
2019-02-07T14:11:39.363Z,37.47
2019-02-07T14:14:13.737Z,33.07
2019-02-07T14:16:57.827Z,33.77
2019-02-07T14:19:40.740Z,34.20
2019-02-07T14:22:15.862Z,35.10
2019-02-07T14:24:50.268Z,33.67
2019-02-07T14:27:21.146Z,30.67
2019-02-07T14:35:35.344Z,37.90
2019-02-07T14:38:20.040Z,40.17
2019-02-07T14:40:54.495Z,31.37
2019-02-07T14:46:34.810Z,32.15
2019-02-07T14:49:06.738Z,22.60
2019-02-07T14:51:39.501Z,19.80
2019-02-07T14:54:11.547Z,18.07
2019-02-07T14:57:06.218Z,14.27
2019-02-07T15:02:16.307Z,9.05
2019-02-07T15:04:51.736Z,6.00
2019-02-07T15:07:26.816Z,5.10
2019-02-07T15:09:59.271Z,5.97
2019-02-07T15:12:28.339Z,4.57
2019-02-07T15:14:57.871Z,5.17
2019-02-07T15:17:26.940Z,5.30
2019-02-07T15:20:00.726Z,3.47
2019-02-07T15:22:30.627Z,4.27
2019-02-07T15:25:03.317Z,4.10
2019-02-07T15:27:39.896Z,4.70
2019-02-07T15:30:10.541Z,3.83
2019-02-07T15:32:40.511Z,3.97
2019-02-07T15:35:10.930Z,4.67
2019-02-07T15:37:39.979Z,4.53
2019-02-07T15:40:10.514Z,3.60
2019-02-07T15:42:39.590Z,5.17
2019-02-07T15:45:08.631Z,5.13
2019-02-07T15:47:50.320Z,6.90
2019-02-07T15:50:21.896Z,6.10
2019-02-07T15:52:52.132Z,6.20
2019-02-07T15:55:20.907Z,4.87
2019-02-07T16:00:38.222Z,4.87
2019-02-07T16:03:07.537Z,18.13
2019-02-07T16:05:36.575Z,14.63
2019-02-07T16:08:05.621Z,6.10
2019-02-07T16:10:34.673Z,15.30
2019-02-07T16:13:04.326Z,15.30
2019-02-07T16:18:09.043Z,10.60
2019-02-07T16:20:48.924Z,5.13
2019-02-07T16:23:14.843Z,4.77
2019-02-07T16:25:50.290Z,3.77
2019-02-07T16:28:20.392Z,4.03
2019-02-07T16:30:53.608Z,3.95
2019-02-07T16:33:24.726Z,5.30
2019-02-07T16:36:03.175Z,3.00
2019-02-07T16:38:36.533Z,3.20
2019-02-07T16:41:05.711Z,2.27
2019-02-07T16:43:40.613Z,2.67
2019-02-07T16:46:10.067Z,2.63
2019-02-07T16:51:15.373Z,2.92
2019-02-07T16:54:03.588Z,2.50
2019-02-07T16:56:35.846Z,3.27
2019-02-07T16:59:06.306Z,2.30
2019-02-07T17:02:02.823Z,2.20
2019-02-07T17:07:08.571Z,4.15
2019-02-07T17:09:41.033Z,3.20
2019-02-07T17:12:10.821Z,2.70
2019-02-07T17:14:43.646Z,3.83
2019-02-07T17:17:12.691Z,21.90
2019-02-07T17:20:00.447Z,2.90
2019-02-07T17:23:04.270Z,2.13
2019-02-07T17:25:42.807Z,3.90
2019-02-07T17:28:11.851Z,4.57
2019-02-07T17:33:22.589Z,2.87
2019-02-07T17:36:03.894Z,2.80
2019-02-07T17:38:32.927Z,2.80
2019-02-07T17:41:02.887Z,4.75
2019-02-07T17:43:33.484Z,3.30
2019-02-07T17:46:03.456Z,2.33
2019-02-07T17:48:46.302Z,2.77
2019-02-07T17:51:22.865Z,3.60
2019-02-07T17:53:50.665Z,6.00
2019-02-07T17:56:19.700Z,5.40
2019-02-07T17:58:48.732Z,4.30
2019-02-07T18:01:17.758Z,2.77
2019-02-07T18:04:00.024Z,4.83
2019-02-07T18:06:47.012Z,6.23
2019-02-07T18:09:16.064Z,8.10
2019-02-07T18:14:20.823Z,3.58
2019-02-07T18:16:52.396Z,4.35
2019-02-07T18:19:21.458Z,3.80
2019-02-07T18:22:03.312Z,2.90
2019-02-07T18:24:57.025Z,2.50
2019-02-07T18:27:31.202Z,5.30
2019-02-07T18:30:07.599Z,6.60
2019-02-07T18:32:49.071Z,2.72
2019-02-07T18:35:18.152Z,3.30
2019-02-07T18:38:03.921Z,3.20
2019-02-07T18:40:43.286Z,3.43
2019-02-07T18:43:12.888Z,2.50
2019-02-07T18:45:42.942Z,4.33
2019-02-07T18:48:11.970Z,3.03
2019-02-07T18:51:02.852Z,2.83
2019-02-07T18:53:39.287Z,3.17
2019-02-07T18:56:08.838Z,2.33
2019-02-07T18:59:03.740Z,2.73
2019-02-07T19:02:04.295Z,3.47
2019-02-07T19:04:34.306Z,2.87
2019-02-07T19:07:03.352Z,2.90
2019-02-07T19:12:10.534Z,3.97
2019-02-07T19:14:40.364Z,4.00
2019-02-07T19:17:29.024Z,3.47
2019-02-07T19:20:05.474Z,6.70
2019-02-07T19:22:34.954Z,5.40
2019-02-07T19:25:29.191Z,3.57
2019-02-07T19:28:23.935Z,2.73
2019-02-07T19:31:01.822Z,3.30
2019-02-07T19:33:30.866Z,3.90
2019-02-07T19:36:01.816Z,4.17
2019-02-07T19:38:32.870Z,4.23
2019-02-07T19:43:35.683Z,5.20
2019-02-07T19:48:52.973Z,5.82
2019-02-07T19:51:29.113Z,5.27
2019-02-07T19:54:22.653Z,4.90
2019-02-07T19:56:56.956Z,6.03
2019-02-07T19:59:26.030Z,5.77
2019-02-07T20:01:55.120Z,4.80
2019-02-07T20:07:14.497Z,4.70
2019-02-07T20:09:52.024Z,5.33
2019-02-07T20:12:25.937Z,5.32
2019-02-07T20:17:45.888Z,4.20
2019-02-07T20:20:29.398Z,4.00
2019-02-07T20:23:29.403Z,4.50
2019-02-07T20:26:02.775Z,4.27
2019-02-07T20:28:32.719Z,3.43
2019-02-07T20:31:02.715Z,3.57
2019-02-07T20:33:32.324Z,3.87
2019-02-07T20:36:30.390Z,4.87
2019-02-07T20:39:11.959Z,3.60
2019-02-07T20:41:40.994Z,4.57
2019-02-07T20:44:28.640Z,4.40
2019-02-07T20:47:12.612Z,4.37
2019-02-07T20:49:41.636Z,5.70
2019-02-07T20:52:27.256Z,5.30
2019-02-07T20:57:34.359Z,4.40
2019-02-07T21:00:17.763Z,4.20
2019-02-07T21:02:46.813Z,3.87
2019-02-07T21:05:30.905Z,4.37
2019-02-07T21:08:00.127Z,4.50
2019-02-07T21:10:30.626Z,5.57
2019-02-07T21:13:03.299Z,6.07
2019-02-07T21:15:32.403Z,4.77
2019-02-07T21:18:01.474Z,6.10
2019-02-07T21:23:06.317Z,5.20
2019-02-07T21:25:53.848Z,4.13
2019-02-07T21:28:22.918Z,4.13
2019-02-07T21:30:52.868Z,3.83
2019-02-07T21:36:06.592Z,5.82
2019-02-07T21:38:53.042Z,5.35
2019-02-07T21:41:43.383Z,4.47
2019-02-07T21:44:12.414Z,5.50
2019-02-07T21:46:52.634Z,5.73
2019-02-07T21:49:40.363Z,4.83
2019-02-07T21:52:09.985Z,4.53
2019-02-07T21:54:52.916Z,6.30
2019-02-07T21:57:23.341Z,5.00
2019-02-07T22:00:00.480Z,5.40
2019-02-07T22:02:39.946Z,5.67
2019-02-07T22:05:09.815Z,5.10
2019-02-07T22:10:54.455Z,5.72
2019-02-07T22:13:24.439Z,4.10
2019-02-07T22:15:53.562Z,5.15
2019-02-07T22:18:41.437Z,4.50
2019-02-07T22:23:46.987Z,4.68
2019-02-07T22:26:20.769Z,4.10
2019-02-07T22:28:50.740Z,3.53
2019-02-07T22:31:20.131Z,3.40
2019-02-07T22:33:52.659Z,3.50
2019-02-07T22:36:34.789Z,5.00
2019-02-07T22:39:07.620Z,3.90
2019-02-07T22:41:36.706Z,3.93
2019-02-07T22:46:42.005Z,4.60
2019-02-07T22:51:53.782Z,4.20
2019-02-07T22:54:31.871Z,4.03
2019-02-07T22:57:14.076Z,3.47
2019-02-07T22:59:43.226Z,3.30
2019-02-07T23:02:13.913Z,2.80
2019-02-07T23:04:43.157Z,2.70
2019-02-07T23:07:12.335Z,3.40
2019-02-07T23:09:44.290Z,3.03
2019-02-07T23:12:13.542Z,3.40
2019-02-07T23:15:05.665Z,4.20
2019-02-07T23:17:34.746Z,3.60
2019-02-07T23:20:09.647Z,4.37
2019-02-07T23:22:41.253Z,4.10
2019-02-07T23:25:10.484Z,4.20
2019-02-07T23:30:18.334Z,6.30
2019-02-07T23:35:23.855Z,7.32
2019-02-07T23:37:52.939Z,7.05
2019-02-07T23:40:22.272Z,7.20
2019-02-07T23:43:00.871Z,7.27
2019-02-07T23:45:46.540Z,7.37
2019-02-07T23:48:16.988Z,9.60
2019-02-07T23:51:07.330Z,8.90
2019-02-07T23:54:02.028Z,8.67
2019-02-07T23:56:45.754Z,10.63
2019-02-07T23:59:14.820Z,12.03
